sensor_id;sensor_type;location;lat;lon;timestamp;temperature;humidity
11838;DHT22;5978;51.020;6.764;2022-09-12T00:02:16;15.70;99.90
11838;DHT22;5978;51.020;6.764;2022-09-12T00:04:41;15.70;99.90
11838;DHT22;5978;51.020;6.764;2022-09-12T00:07:07;15.70;99.90
11838;DHT22;5978;51.020;6.764;2022-09-12T00:09:32;15.60;99.90
11838;DHT22;5978;51.020;6.764;2022-09-12T00:11:58;15.60;99.90
11838;DHT22;5978;51.020;6.764;2022-09-12T00:14:23;15.50;99.90
11838;DHT22;5978;51.020;6.764;2022-09-12T00:16:49;15.50;99.90
11838;DHT22;5978;51.020;6.764;2022-09-12T00:19:14;15.50;99.90
11838;DHT22;5978;51.020;6.764;2022-09-12T00:21:40;15.40;99.90
11838;DHT22;5978;51.020;6.764;2022-09-12T00:24:07;15.40;99.90
11838;DHT22;5978;51.020;6.764;2022-09-12T00:26:32;15.40;99.90
11838;DHT22;5978;51.020;6.764;2022-09-12T00:28:58;15.40;99.90
11838;DHT22;5978;51.020;6.764;2022-09-12T00:31:25;15.30;99.90
11838;DHT22;5978;51.020;6.764;2022-09-12T00:33:53;15.30;99.90
11838;DHT22;5978;51.020;6.764;2022-09-12T00:36:21;15.30;99.90
11838;DHT22;5978;51.020;6.764;2022-09-12T00:38:47;15.20;99.90
11838;DHT22;5978;51.020;6.764;2022-09-12T00:43:48;15.10;99.90
11838;DHT22;5978;51.020;6.764;2022-09-12T00:46:41;15.20;99.90
11838;DHT22;5978;51.020;6.764;2022-09-12T00:49:16;15.20;99.90
11838;DHT22;5978;51.020;6.764;2022-09-12T00:51:54;15.20;99.90
11838;DHT22;5978;51.020;6.764;2022-09-12T00:54:24;15.20;99.90
11838;DHT22;5978;51.020;6.764;2022-09-12T00:56:53;15.20;99.90
11838;DHT22;5978;51.020;6.764;2022-09-12T00:59:24;15.30;99.90
11838;DHT22;5978;51.020;6.764;2022-09-12T01:01:51;15.20;99.90
11838;DHT22;5978;51.020;6.764;2022-09-12T01:04:19;15.20;99.90
11838;DHT22;5978;51.020;6.764;2022-09-12T01:06:47;15.20;99.90
11838;DHT22;5978;51.020;6.764;2022-09-12T01:09:16;15.20;99.90
11838;DHT22;5978;51.020;6.764;2022-09-12T01:11:44;15.10;99.90
11838;DHT22;5978;51.020;6.764;2022-09-12T01:14:11;15.10;99.90
11838;DHT22;5978;51.020;6.764;2022-09-12T01:16:38;15.00;99.90
11838;DHT22;5978;51.020;6.764;2022-09-12T01:27:42;14.70;99.90
11838;DHT22;5978;51.020;6.764;2022-09-12T01:35:23;14.60;99.90
11838;DHT22;5978;51.020;6.764;2022-09-12T01:43:11;14.60;99.90
11838;DHT22;5978;51.020;6.764;2022-09-12T01:45:52;14.60;99.90
11838;DHT22;5978;51.020;6.764;2022-09-12T01:48:26;14.70;99.90
11838;DHT22;5978;51.020;6.764;2022-09-12T01:51:09;14.50;99.90
11838;DHT22;5978;51.020;6.764;2022-09-12T01:53:53;14.50;99.90
11838;DHT22;5978;51.020;6.764;2022-09-12T01:56:27;14.50;99.90
11838;DHT22;5978;51.020;6.764;2022-09-12T01:58:58;14.40;99.90
11838;DHT22;5978;51.020;6.764;2022-09-12T02:01:28;14.40;99.90
11838;DHT22;5978;51.020;6.764;2022-09-12T02:06:49;14.50;99.90
11838;DHT22;5978;51.020;6.764;2022-09-12T02:09:26;14.50;99.90
11838;DHT22;5978;51.020;6.764;2022-09-12T02:11:58;14.50;99.90
11838;DHT22;5978;51.020;6.764;2022-09-12T02:14:31;14.50;99.90
11838;DHT22;5978;51.020;6.764;2022-09-12T02:17:11;14.50;99.90
11838;DHT22;5978;51.020;6.764;2022-09-12T02:19:46;14.40;99.90
11838;DHT22;5978;51.020;6.764;2022-09-12T02:22:16;14.40;99.90
11838;DHT22;5978;51.020;6.764;2022-09-12T02:24:45;14.40;99.90
11838;DHT22;5978;51.020;6.764;2022-09-12T02:27:55;14.30;99.90
11838;DHT22;5978;51.020;6.764;2022-09-12T02:30:19;14.40;99.90
11838;DHT22;5978;51.020;6.764;2022-09-12T02:32:57;14.30;99.90
11838;DHT22;5978;51.020;6.764;2022-09-12T02:35:48;14.20;99.90
11838;DHT22;5978;51.020;6.764;2022-09-12T02:38:19;14.20;99.90
11838;DHT22;5978;51.020;6.764;2022-09-12T02:40:49;14.10;99.90
11838;DHT22;5978;51.020;6.764;2022-09-12T02:43:15;14.10;99.90
11838;DHT22;5978;51.020;6.764;2022-09-12T02:45:41;14.10;99.90
11838;DHT22;5978;51.020;6.764;2022-09-12T02:48:18;14.20;99.90
11838;DHT22;5978;51.020;6.764;2022-09-12T02:50:45;14.20;99.90
11838;DHT22;5978;51.020;6.764;2022-09-12T02:53:11;14.20;99.90
11838;DHT22;5978;51.020;6.764;2022-09-12T02:55:38;14.20;99.90
11838;DHT22;5978;51.020;6.764;2022-09-12T02:58:07;14.30;99.90
11838;DHT22;5978;51.020;6.764;2022-09-12T03:09:11;14.10;99.90
11838;DHT22;5978;51.020;6.764;2022-09-12T03:14:25;14.00;99.90
11838;DHT22;5978;51.020;6.764;2022-09-12T03:22:06;14.00;99.90
11838;DHT22;5978;51.020;6.764;2022-09-12T03:24:42;14.00;99.90
11838;DHT22;5978;51.020;6.764;2022-09-12T03:27:19;14.00;99.90
11838;DHT22;5978;51.020;6.764;2022-09-12T03:29:47;14.00;99.90
11838;DHT22;5978;51.020;6.764;2022-09-12T03:32:13;14.00;99.90
11838;DHT22;5978;51.020;6.764;2022-09-12T03:34:38;13.90;99.90
11838;DHT22;5978;51.020;6.764;2022-09-12T03:37:04;14.00;99.90
11838;DHT22;5978;51.020;6.764;2022-09-12T03:39:30;13.90;99.90
11838;DHT22;5978;51.020;6.764;2022-09-12T03:41:56;14.00;99.90
11838;DHT22;5978;51.020;6.764;2022-09-12T03:44:22;13.90;99.90
11838;DHT22;5978;51.020;6.764;2022-09-12T03:46:48;13.90;99.90
11838;DHT22;5978;51.020;6.764;2022-09-12T03:49:14;13.90;99.90
11838;DHT22;5978;51.020;6.764;2022-09-12T03:51:40;13.90;99.90
11838;DHT22;5978;51.020;6.764;2022-09-12T03:54:07;13.90;99.90
11838;DHT22;5978;51.020;6.764;2022-09-12T03:56:33;13.90;99.90
11838;DHT22;5978;51.020;6.764;2022-09-12T03:58:59;13.80;99.90
11838;DHT22;5978;51.020;6.764;2022-09-12T04:01:25;13.80;99.90
11838;DHT22;5978;51.020;6.764;2022-09-12T04:03:51;13.80;99.90
11838;DHT22;5978;51.020;6.764;2022-09-12T04:06:20;13.90;99.90
11838;DHT22;5978;51.020;6.764;2022-09-12T04:08:48;13.80;99.90
11838;DHT22;5978;51.020;6.764;2022-09-12T04:11:15;13.80;99.90
11838;DHT22;5978;51.020;6.764;2022-09-12T04:13:43;13.80;99.90
11838;DHT22;5978;51.020;6.764;2022-09-12T04:16:10;13.80;99.90
11838;DHT22;5978;51.020;6.764;2022-09-12T04:18:36;13.70;99.90
11838;DHT22;5978;51.020;6.764;2022-09-12T04:21:06;13.70;99.90
11838;DHT22;5978;51.020;6.764;2022-09-12T04:23:33;13.70;99.90
11838;DHT22;5978;51.020;6.764;2022-09-12T04:26:00;13.70;99.90
11838;DHT22;5978;51.020;6.764;2022-09-12T04:28:26;13.60;99.90
11838;DHT22;5978;51.020;6.764;2022-09-12T04:30:54;13.50;99.90
11838;DHT22;5978;51.020;6.764;2022-09-12T04:33:19;13.50;99.90
11838;DHT22;5978;51.020;6.764;2022-09-12T04:35:45;13.50;99.90
11838;DHT22;5978;51.020;6.764;2022-09-12T04:38:11;13.50;99.90
11838;DHT22;5978;51.020;6.764;2022-09-12T04:40:37;13.50;99.90
11838;DHT22;5978;51.020;6.764;2022-09-12T04:43:03;13.50;99.90
11838;DHT22;5978;51.020;6.764;2022-09-12T04:45:29;13.50;99.90
11838;DHT22;5978;51.020;6.764;2022-09-12T04:47:54;13.50;99.90
11838;DHT22;5978;51.020;6.764;2022-09-12T04:50:20;13.50;99.90
11838;DHT22;5978;51.020;6.764;2022-09-12T04:52:53;13.50;99.90
11838;DHT22;5978;51.020;6.764;2022-09-12T04:55:20;13.60;99.90
11838;DHT22;5978;51.020;6.764;2022-09-12T04:57:45;13.60;99.90
11838;DHT22;5978;51.020;6.764;2022-09-12T05:00:12;13.70;99.90
11838;DHT22;5978;51.020;6.764;2022-09-12T05:02:41;13.70;99.90
11838;DHT22;5978;51.020;6.764;2022-09-12T05:05:07;13.70;99.90
11838;DHT22;5978;51.020;6.764;2022-09-12T05:07:33;13.80;99.90
11838;DHT22;5978;51.020;6.764;2022-09-12T05:09:59;13.70;99.90
11838;DHT22;5978;51.020;6.764;2022-09-12T05:12:26;13.60;99.90
11838;DHT22;5978;51.020;6.764;2022-09-12T05:14:51;13.60;99.90
11838;DHT22;5978;51.020;6.764;2022-09-12T05:17:17;13.70;99.90
11838;DHT22;5978;51.020;6.764;2022-09-12T05:19:43;13.80;99.90
11838;DHT22;5978;51.020;6.764;2022-09-12T05:22:09;13.80;99.90
11838;DHT22;5978;51.020;6.764;2022-09-12T05:24:34;13.70;99.90
11838;DHT22;5978;51.020;6.764;2022-09-12T05:27:02;13.80;99.90
11838;DHT22;5978;51.020;6.764;2022-09-12T05:29:29;13.80;99.90
11838;DHT22;5978;51.020;6.764;2022-09-12T05:31:54;13.70;99.90
11838;DHT22;5978;51.020;6.764;2022-09-12T05:34:20;13.80;99.90
11838;DHT22;5978;51.020;6.764;2022-09-12T05:36:46;13.80;99.90
11838;DHT22;5978;51.020;6.764;2022-09-12T05:39:12;13.90;99.90
11838;DHT22;5978;51.020;6.764;2022-09-12T05:41:37;13.90;99.90
11838;DHT22;5978;51.020;6.764;2022-09-12T05:44:04;13.90;99.90
11838;DHT22;5978;51.020;6.764;2022-09-12T05:46:36;14.00;99.90
11838;DHT22;5978;51.020;6.764;2022-09-12T05:49:04;14.10;99.90
11838;DHT22;5978;51.020;6.764;2022-09-12T05:51:36;14.00;99.90
11838;DHT22;5978;51.020;6.764;2022-09-12T05:54:07;14.10;99.90
11838;DHT22;5978;51.020;6.764;2022-09-12T05:56:37;14.20;99.90
11838;DHT22;5978;51.020;6.764;2022-09-12T05:59:14;14.20;99.90
11838;DHT22;5978;51.020;6.764;2022-09-12T06:01:41;14.30;99.90
11838;DHT22;5978;51.020;6.764;2022-09-12T06:04:07;14.40;99.90
11838;DHT22;5978;51.020;6.764;2022-09-12T06:06:36;14.50;99.90
11838;DHT22;5978;51.020;6.764;2022-09-12T06:09:03;14.50;99.90
11838;DHT22;5978;51.020;6.764;2022-09-12T06:11:31;14.50;99.90
11838;DHT22;5978;51.020;6.764;2022-09-12T06:13:58;14.60;99.90
11838;DHT22;5978;51.020;6.764;2022-09-12T06:16:30;14.60;99.90
11838;DHT22;5978;51.020;6.764;2022-09-12T06:18:58;14.60;99.90
11838;DHT22;5978;51.020;6.764;2022-09-12T06:21:25;14.60;99.90
11838;DHT22;5978;51.020;6.764;2022-09-12T06:23:55;14.70;99.90
11838;DHT22;5978;51.020;6.764;2022-09-12T06:26:23;14.70;99.90
11838;DHT22;5978;51.020;6.764;2022-09-12T06:28:50;14.80;99.90
11838;DHT22;5978;51.020;6.764;2022-09-12T06:31:19;14.80;99.90
11838;DHT22;5978;51.020;6.764;2022-09-12T06:33:47;14.90;99.90
11838;DHT22;5978;51.020;6.764;2022-09-12T06:36:16;15.10;99.90
11838;DHT22;5978;51.020;6.764;2022-09-12T06:38:42;15.20;99.90
11838;DHT22;5978;51.020;6.764;2022-09-12T06:41:09;15.40;99.90
11838;DHT22;5978;51.020;6.764;2022-09-12T06:43:37;15.40;99.90
11838;DHT22;5978;51.020;6.764;2022-09-12T06:46:03;15.50;99.90
11838;DHT22;5978;51.020;6.764;2022-09-12T06:48:29;15.50;99.90
11838;DHT22;5978;51.020;6.764;2022-09-12T06:50:56;15.50;99.90
11838;DHT22;5978;51.020;6.764;2022-09-12T06:53:23;15.70;99.90
11838;DHT22;5978;51.020;6.764;2022-09-12T06:56:00;15.80;99.90
11838;DHT22;5978;51.020;6.764;2022-09-12T06:58:28;15.90;99.90
11838;DHT22;5978;51.020;6.764;2022-09-12T07:01:10;16.00;99.90
11838;DHT22;5978;51.020;6.764;2022-09-12T07:03:37;16.10;99.90
11838;DHT22;5978;51.020;6.764;2022-09-12T07:06:13;16.20;99.90
11838;DHT22;5978;51.020;6.764;2022-09-12T07:08:39;16.30;99.90
11838;DHT22;5978;51.020;6.764;2022-09-12T07:13:40;16.20;99.90
11838;DHT22;5978;51.020;6.764;2022-09-12T07:16:06;16.20;99.90
11838;DHT22;5978;51.020;6.764;2022-09-12T07:18:35;16.20;99.90
11838;DHT22;5978;51.020;6.764;2022-09-12T07:21:04;16.40;99.90
11838;DHT22;5978;51.020;6.764;2022-09-12T07:23:30;16.40;99.90
11838;DHT22;5978;51.020;6.764;2022-09-12T07:25:57;16.40;99.90
11838;DHT22;5978;51.020;6.764;2022-09-12T07:28:28;16.50;99.90
11838;DHT22;5978;51.020;6.764;2022-09-12T07:30:54;16.60;99.90
11838;DHT22;5978;51.020;6.764;2022-09-12T07:33:21;16.70;99.90
11838;DHT22;5978;51.020;6.764;2022-09-12T07:35:47;16.60;99.90
11838;DHT22;5978;51.020;6.764;2022-09-12T07:38:12;16.80;99.90
11838;DHT22;5978;51.020;6.764;2022-09-12T07:40:38;17.00;99.90
11838;DHT22;5978;51.020;6.764;2022-09-12T07:43:04;17.20;99.90
11838;DHT22;5978;51.020;6.764;2022-09-12T07:45:30;17.50;99.90
11838;DHT22;5978;51.020;6.764;2022-09-12T07:47:56;17.60;99.90
11838;DHT22;5978;51.020;6.764;2022-09-12T07:50:21;17.60;99.90
11838;DHT22;5978;51.020;6.764;2022-09-12T07:52:47;17.70;99.90
11838;DHT22;5978;51.020;6.764;2022-09-12T07:55:12;17.70;99.90
11838;DHT22;5978;51.020;6.764;2022-09-12T07:57:38;17.70;99.90
11838;DHT22;5978;51.020;6.764;2022-09-12T08:00:04;17.80;99.90
11838;DHT22;5978;51.020;6.764;2022-09-12T08:02:30;17.70;99.90
11838;DHT22;5978;51.020;6.764;2022-09-12T08:04:56;17.90;99.90
11838;DHT22;5978;51.020;6.764;2022-09-12T08:07:21;17.80;99.90
11838;DHT22;5978;51.020;6.764;2022-09-12T08:09:47;18.00;99.90
11838;DHT22;5978;51.020;6.764;2022-09-12T08:12:13;18.00;99.90
11838;DHT22;5978;51.020;6.764;2022-09-12T08:14:39;18.10;99.90
11838;DHT22;5978;51.020;6.764;2022-09-12T08:17:04;18.30;99.90
11838;DHT22;5978;51.020;6.764;2022-09-12T08:19:31;18.30;99.90
11838;DHT22;5978;51.020;6.764;2022-09-12T08:21:56;18.40;99.90
11838;DHT22;5978;51.020;6.764;2022-09-12T08:24:22;18.50;99.90
11838;DHT22;5978;51.020;6.764;2022-09-12T08:26:48;18.50;99.90
11838;DHT22;5978;51.020;6.764;2022-09-12T08:29:13;18.40;99.90
11838;DHT22;5978;51.020;6.764;2022-09-12T08:31:39;18.50;99.90
11838;DHT22;5978;51.020;6.764;2022-09-12T08:34:06;18.60;99.90
11838;DHT22;5978;51.020;6.764;2022-09-12T08:36:33;18.70;99.90
11838;DHT22;5978;51.020;6.764;2022-09-12T08:39:04;18.90;99.90
11838;DHT22;5978;51.020;6.764;2022-09-12T08:51:50;19.50;99.90
11838;DHT22;5978;51.020;6.764;2022-09-12T08:54:26;19.70;99.90
11838;DHT22;5978;51.020;6.764;2022-09-12T08:56:55;19.90;99.90
11838;DHT22;5978;51.020;6.764;2022-09-12T08:59:22;19.90;99.90
11838;DHT22;5978;51.020;6.764;2022-09-12T09:01:49;19.90;99.90
11838;DHT22;5978;51.020;6.764;2022-09-12T09:12:35;20.50;99.90
11838;DHT22;5978;51.020;6.764;2022-09-12T09:17:44;20.70;99.90
11838;DHT22;5978;51.020;6.764;2022-09-12T09:25:35;21.30;99.90
11838;DHT22;5978;51.020;6.764;2022-09-12T09:28:15;21.70;99.90
11838;DHT22;5978;51.020;6.764;2022-09-12T09:30:42;21.80;99.90
11838;DHT22;5978;51.020;6.764;2022-09-12T09:33:21;22.00;99.90
11838;DHT22;5978;51.020;6.764;2022-09-12T09:35:55;22.20;99.90
11838;DHT22;5978;51.020;6.764;2022-09-12T09:38:35;22.50;99.90
11838;DHT22;5978;51.020;6.764;2022-09-12T09:43:31;22.60;99.90
11838;DHT22;5978;51.020;6.764;2022-09-12T09:45:57;22.70;99.90
11838;DHT22;5978;51.020;6.764;2022-09-12T09:48:26;22.90;99.90
11838;DHT22;5978;51.020;6.764;2022-09-12T09:50:52;23.10;99.90
11838;DHT22;5978;51.020;6.764;2022-09-12T09:55:54;23.30;99.90
11838;DHT22;5978;51.020;6.764;2022-09-12T09:58:29;23.30;99.90
11838;DHT22;5978;51.020;6.764;2022-09-12T10:01:03;23.20;99.90
11838;DHT22;5978;51.020;6.764;2022-09-12T10:03:36;23.50;99.90
11838;DHT22;5978;51.020;6.764;2022-09-12T10:06:30;23.60;99.90
11838;DHT22;5978;51.020;6.764;2022-09-12T10:09:18;23.60;99.90
11838;DHT22;5978;51.020;6.764;2022-09-12T10:11:44;23.70;99.90
11838;DHT22;5978;51.020;6.764;2022-09-12T10:14:36;23.90;99.90
11838;DHT22;5978;51.020;6.764;2022-09-12T10:17:28;24.00;99.90
11838;DHT22;5978;51.020;6.764;2022-09-12T10:19:55;24.40;99.90
11838;DHT22;5978;51.020;6.764;2022-09-12T10:22:24;24.60;99.90
11838;DHT22;5978;51.020;6.764;2022-09-12T10:24:52;24.80;99.90
11838;DHT22;5978;51.020;6.764;2022-09-12T10:27:21;24.70;99.90
11838;DHT22;5978;51.020;6.764;2022-09-12T10:30:15;25.10;99.90
11838;DHT22;5978;51.020;6.764;2022-09-12T10:32:45;25.50;99.90
11838;DHT22;5978;51.020;6.764;2022-09-12T10:35:27;25.70;99.90
11838;DHT22;5978;51.020;6.764;2022-09-12T10:37:57;25.80;99.90
11838;DHT22;5978;51.020;6.764;2022-09-12T10:40:40;25.60;99.90
11838;DHT22;5978;51.020;6.764;2022-09-12T10:43:26;26.40;99.90
11838;DHT22;5978;51.020;6.764;2022-09-12T10:48:43;27.20;99.90
11838;DHT22;5978;51.020;6.764;2022-09-12T10:53:58;28.30;99.90
11838;DHT22;5978;51.020;6.764;2022-09-12T11:05:13;30.00;82.30
11838;DHT22;5978;51.020;6.764;2022-09-12T11:25:18;30.90;69.60
11838;DHT22;5978;51.020;6.764;2022-09-12T11:30:16;31.10;67.40
11838;DHT22;5978;51.020;6.764;2022-09-12T11:35:29;32.10;64.20
11838;DHT22;5978;51.020;6.764;2022-09-12T11:46:16;32.10;58.60
11838;DHT22;5978;51.020;6.764;2022-09-12T11:51:26;33.00;59.50
11838;DHT22;5978;51.020;6.764;2022-09-12T11:54:01;33.50;58.30
11838;DHT22;5978;51.020;6.764;2022-09-12T11:56:27;33.50;57.40
11838;DHT22;5978;51.020;6.764;2022-09-12T11:59:03;33.30;58.00
11838;DHT22;5978;51.020;6.764;2022-09-12T12:01:39;33.60;57.30
11838;DHT22;5978;51.020;6.764;2022-09-12T12:04:09;33.20;57.00
11838;DHT22;5978;51.020;6.764;2022-09-12T12:06:56;33.10;57.20
11838;DHT22;5978;51.020;6.764;2022-09-12T12:09:25;33.90;56.60
11838;DHT22;5978;51.020;6.764;2022-09-12T12:11:53;34.30;55.90
11838;DHT22;5978;51.020;6.764;2022-09-12T12:14:34;34.50;55.00
11838;DHT22;5978;51.020;6.764;2022-09-12T12:17:01;35.20;54.50
11838;DHT22;5978;51.020;6.764;2022-09-12T12:19:35;35.70;53.10
11838;DHT22;5978;51.020;6.764;2022-09-12T12:22:22;35.50;51.90
11838;DHT22;5978;51.020;6.764;2022-09-12T12:27:58;36.20;52.70
11838;DHT22;5978;51.020;6.764;2022-09-12T12:33:01;36.50;50.10
11838;DHT22;5978;51.020;6.764;2022-09-12T12:35:41;36.70;51.00
11838;DHT22;5978;51.020;6.764;2022-09-12T12:38:28;37.70;49.30
11838;DHT22;5978;51.020;6.764;2022-09-12T12:43:50;39.10;48.00
11838;DHT22;5978;51.020;6.764;2022-09-12T12:46:18;38.30;47.50
11838;DHT22;5978;51.020;6.764;2022-09-12T12:49:20;37.20;47.80
11838;DHT22;5978;51.020;6.764;2022-09-12T12:51:53;37.50;47.80
11838;DHT22;5978;51.020;6.764;2022-09-12T12:57:16;37.50;47.30
11838;DHT22;5978;51.020;6.764;2022-09-12T13:00:00;37.90;48.00
11838;DHT22;5978;51.020;6.764;2022-09-12T13:02:31;37.50;47.40
11838;DHT22;5978;51.020;6.764;2022-09-12T13:04:59;36.60;47.80
11838;DHT22;5978;51.020;6.764;2022-09-12T13:07:30;37.00;48.20
11838;DHT22;5978;51.020;6.764;2022-09-12T13:09:58;37.70;47.60
11838;DHT22;5978;51.020;6.764;2022-09-12T13:12:31;38.80;47.50
11838;DHT22;5978;51.020;6.764;2022-09-12T13:15:00;39.80;46.80
11838;DHT22;5978;51.020;6.764;2022-09-12T13:17:40;40.30;45.20
11838;DHT22;5978;51.020;6.764;2022-09-12T13:20:15;39.60;44.90
11838;DHT22;5978;51.020;6.764;2022-09-12T13:22:45;39.10;44.70
11838;DHT22;5978;51.020;6.764;2022-09-12T13:25:19;39.30;46.10
11838;DHT22;5978;51.020;6.764;2022-09-12T13:30:34;40.20;45.90
11838;DHT22;5978;51.020;6.764;2022-09-12T13:33:39;41.00;44.20
11838;DHT22;5978;51.020;6.764;2022-09-12T13:44:17;39.70;45.20
11838;DHT22;5978;51.020;6.764;2022-09-12T13:46:44;40.10;43.80
11838;DHT22;5978;51.020;6.764;2022-09-12T13:49:33;40.90;43.70
11838;DHT22;5978;51.020;6.764;2022-09-12T13:52:20;40.70;43.10
11838;DHT22;5978;51.020;6.764;2022-09-12T13:54:49;40.30;43.70
11838;DHT22;5978;51.020;6.764;2022-09-12T13:57:45;40.00;43.90
11838;DHT22;5978;51.020;6.764;2022-09-12T14:00:19;39.60;44.90
11838;DHT22;5978;51.020;6.764;2022-09-12T14:02:47;39.50;44.00
11838;DHT22;5978;51.020;6.764;2022-09-12T14:05:19;39.20;44.20
11838;DHT22;5978;51.020;6.764;2022-09-12T14:08:00;38.40;44.60
11838;DHT22;5978;51.020;6.764;2022-09-12T14:10:34;38.70;45.30
11838;DHT22;5978;51.020;6.764;2022-09-12T14:13:03;39.00;44.90
11838;DHT22;5978;51.020;6.764;2022-09-12T14:15:31;39.50;43.80
11838;DHT22;5978;51.020;6.764;2022-09-12T14:18:00;39.70;43.40
11838;DHT22;5978;51.020;6.764;2022-09-12T14:20:28;40.50;43.60
11838;DHT22;5978;51.020;6.764;2022-09-12T14:22:59;40.30;42.50
11838;DHT22;5978;51.020;6.764;2022-09-12T14:25:27;39.80;43.30
11838;DHT22;5978;51.020;6.764;2022-09-12T14:27:55;39.70;43.50
11838;DHT22;5978;51.020;6.764;2022-09-12T14:30:32;38.90;43.00
11838;DHT22;5978;51.020;6.764;2022-09-12T14:33:15;39.10;43.90
11838;DHT22;5978;51.020;6.764;2022-09-12T14:36:06;39.60;43.90
11838;DHT22;5978;51.020;6.764;2022-09-12T14:38:42;39.40;43.10
11838;DHT22;5978;51.020;6.764;2022-09-12T14:41:09;39.40;44.00
11838;DHT22;5978;51.020;6.764;2022-09-12T14:43:41;39.50;44.20
11838;DHT22;5978;51.020;6.764;2022-09-12T14:46:21;39.20;43.10
11838;DHT22;5978;51.020;6.764;2022-09-12T14:48:52;39.90;43.60
11838;DHT22;5978;51.020;6.764;2022-09-12T14:51:30;39.50;43.30
11838;DHT22;5978;51.020;6.764;2022-09-12T14:53:57;40.00;43.60
11838;DHT22;5978;51.020;6.764;2022-09-12T14:56:51;39.70;43.10
11838;DHT22;5978;51.020;6.764;2022-09-12T14:59:38;39.20;43.30
11838;DHT22;5978;51.020;6.764;2022-09-12T15:04:49;38.90;44.10
11838;DHT22;5978;51.020;6.764;2022-09-12T15:07:55;39.60;44.40
11838;DHT22;5978;51.020;6.764;2022-09-12T15:10:28;39.50;43.50
11838;DHT22;5978;51.020;6.764;2022-09-12T15:15:33;37.80;44.60
11838;DHT22;5978;51.020;6.764;2022-09-12T15:17:59;37.40;44.80
11838;DHT22;5978;51.020;6.764;2022-09-12T15:20:25;37.80;45.40
11838;DHT22;5978;51.020;6.764;2022-09-12T15:22:51;37.40;44.70
11838;DHT22;5978;51.020;6.764;2022-09-12T15:25:17;37.20;45.60
11838;DHT22;5978;51.020;6.764;2022-09-12T15:27:43;36.00;46.10
11838;DHT22;5978;51.020;6.764;2022-09-12T15:30:10;35.10;47.20
11838;DHT22;5978;51.020;6.764;2022-09-12T15:32:37;34.70;47.80
11838;DHT22;5978;51.020;6.764;2022-09-12T15:35:19;34.90;48.30
11838;DHT22;5978;51.020;6.764;2022-09-12T15:37:46;34.00;48.30
11838;DHT22;5978;51.020;6.764;2022-09-12T15:40:12;33.70;49.50
11838;DHT22;5978;51.020;6.764;2022-09-12T15:42:38;32.80;49.70
11838;DHT22;5978;51.020;6.764;2022-09-12T15:45:22;33.00;51.00
11838;DHT22;5978;51.020;6.764;2022-09-12T15:47:49;33.40;50.20
11838;DHT22;5978;51.020;6.764;2022-09-12T15:50:15;33.30;50.40
11838;DHT22;5978;51.020;6.764;2022-09-12T15:52:41;33.60;50.70
11838;DHT22;5978;51.020;6.764;2022-09-12T15:55:19;33.70;50.50
11838;DHT22;5978;51.020;6.764;2022-09-12T15:57:44;33.90;50.40
11838;DHT22;5978;51.020;6.764;2022-09-12T16:00:11;33.80;50.20
11838;DHT22;5978;51.020;6.764;2022-09-12T16:02:37;33.60;50.50
11838;DHT22;5978;51.020;6.764;2022-09-12T16:05:03;33.00;50.40
11838;DHT22;5978;51.020;6.764;2022-09-12T16:07:29;32.70;51.30
11838;DHT22;5978;51.020;6.764;2022-09-12T16:09:55;32.50;51.60
11838;DHT22;5978;51.020;6.764;2022-09-12T16:12:21;32.00;52.20
11838;DHT22;5978;51.020;6.764;2022-09-12T16:14:46;31.10;52.60
11838;DHT22;5978;51.020;6.764;2022-09-12T16:17:12;30.60;54.10
11838;DHT22;5978;51.020;6.764;2022-09-12T16:19:37;30.10;54.50
11838;DHT22;5978;51.020;6.764;2022-09-12T16:22:03;29.60;55.80
11838;DHT22;5978;51.020;6.764;2022-09-12T16:24:28;29.40;56.70
11838;DHT22;5978;51.020;6.764;2022-09-12T16:26:54;28.90;56.60
11838;DHT22;5978;51.020;6.764;2022-09-12T16:29:19;28.70;57.30
11838;DHT22;5978;51.020;6.764;2022-09-12T16:31:45;28.70;58.60
11838;DHT22;5978;51.020;6.764;2022-09-12T16:34:11;28.70;59.10
11838;DHT22;5978;51.020;6.764;2022-09-12T16:36:36;28.50;58.50
11838;DHT22;5978;51.020;6.764;2022-09-12T16:39:02;28.20;59.00
11838;DHT22;5978;51.020;6.764;2022-09-12T16:41:28;28.00;59.90
11838;DHT22;5978;51.020;6.764;2022-09-12T16:43:54;27.90;59.60
11838;DHT22;5978;51.020;6.764;2022-09-12T16:46:22;27.80;60.00
11838;DHT22;5978;51.020;6.764;2022-09-12T16:48:49;27.80;61.00
11838;DHT22;5978;51.020;6.764;2022-09-12T16:51:17;27.80;61.20
11838;DHT22;5978;51.020;6.764;2022-09-12T16:53:47;27.90;63.30
11838;DHT22;5978;51.020;6.764;2022-09-12T16:56:13;27.90;62.30
11838;DHT22;5978;51.020;6.764;2022-09-12T16:58:40;27.60;61.60
11838;DHT22;5978;51.020;6.764;2022-09-12T17:01:11;27.50;62.60
11838;DHT22;5978;51.020;6.764;2022-09-12T17:03:37;27.40;62.80
11838;DHT22;5978;51.020;6.764;2022-09-12T17:06:05;27.30;62.80
11838;DHT22;5978;51.020;6.764;2022-09-12T17:08:33;27.20;63.10
11838;DHT22;5978;51.020;6.764;2022-09-12T17:11:06;27.00;63.50
11838;DHT22;5978;51.020;6.764;2022-09-12T17:13:32;26.80;63.80
11838;DHT22;5978;51.020;6.764;2022-09-12T17:16:03;26.90;64.50
11838;DHT22;5978;51.020;6.764;2022-09-12T17:18:29;26.90;65.80
11838;DHT22;5978;51.020;6.764;2022-09-12T17:20:54;26.80;65.80
11838;DHT22;5978;51.020;6.764;2022-09-12T17:23:20;26.70;66.10
11838;DHT22;5978;51.020;6.764;2022-09-12T17:25:47;26.70;70.00
11838;DHT22;5978;51.020;6.764;2022-09-12T17:28:14;26.70;74.80
11838;DHT22;5978;51.020;6.764;2022-09-12T17:30:39;26.70;78.30
11838;DHT22;5978;51.020;6.764;2022-09-12T17:33:05;26.60;80.10
11838;DHT22;5978;51.020;6.764;2022-09-12T17:35:35;26.50;81.60
11838;DHT22;5978;51.020;6.764;2022-09-12T17:38:01;26.40;90.20
11838;DHT22;5978;51.020;6.764;2022-09-12T17:40:28;26.20;79.80
11838;DHT22;5978;51.020;6.764;2022-09-12T17:42:53;26.00;88.00
11838;DHT22;5978;51.020;6.764;2022-09-12T17:45:21;26.00;85.70
11838;DHT22;5978;51.020;6.764;2022-09-12T17:47:46;25.80;90.50
11838;DHT22;5978;51.020;6.764;2022-09-12T17:50:12;25.70;96.30
11838;DHT22;5978;51.020;6.764;2022-09-12T17:52:38;25.60;98.30
11838;DHT22;5978;51.020;6.764;2022-09-12T17:55:03;25.60;99.90
11838;DHT22;5978;51.020;6.764;2022-09-12T17:57:29;25.50;99.90
11838;DHT22;5978;51.020;6.764;2022-09-12T17:59:54;25.30;99.90
11838;DHT22;5978;51.020;6.764;2022-09-12T18:02:20;25.20;99.90
11838;DHT22;5978;51.020;6.764;2022-09-12T18:04:46;25.00;99.90
11838;DHT22;5978;51.020;6.764;2022-09-12T18:07:16;24.90;99.90
11838;DHT22;5978;51.020;6.764;2022-09-12T18:09:43;24.80;99.90
11838;DHT22;5978;51.020;6.764;2022-09-12T18:12:10;24.70;99.90
11838;DHT22;5978;51.020;6.764;2022-09-12T18:14:36;24.50;99.90
11838;DHT22;5978;51.020;6.764;2022-09-12T18:17:03;24.30;99.90
11838;DHT22;5978;51.020;6.764;2022-09-12T18:19:31;24.30;99.90
11838;DHT22;5978;51.020;6.764;2022-09-12T18:21:56;24.20;99.90
11838;DHT22;5978;51.020;6.764;2022-09-12T18:24:22;24.10;99.90
11838;DHT22;5978;51.020;6.764;2022-09-12T18:26:48;24.00;99.90
11838;DHT22;5978;51.020;6.764;2022-09-12T18:29:14;23.90;99.90
11838;DHT22;5978;51.020;6.764;2022-09-12T18:31:44;23.80;99.90
11838;DHT22;5978;51.020;6.764;2022-09-12T18:34:11;23.80;99.90